Strona główna
METAR-TAF:

METAR-TAF

Lotnisko :

South Jersey Regional Airport

Mount Holly, New Jersey, Stany Zjednoczone

Szerokość geograficzna: 39-56-26N, Długość geograficzna: 074-50-28W, wysokość: 16 m

Aktualna obserwacja pogody

Raport powstał 56 minut temu, godzina 21:54 UTC
Wiatr 6 kt od północny zachód
Temperatura 18°C
Wilgotność 26%
Ciśnienie 1015 hPa
Widzialność: 16.1 km
bezchmurnie

METAR: KVAY 062154Z AUTO 32006KT 10SM CLR 18/M02 A2996 RMK AO2 SLP146 T01831022

czas: 18:50 (22:50 UTC)


TAF: brakujący

Obserwacja i prognoza pogody dla ponad 4000 lotnisk (raport METAR i TAF).

Dostępne stacje oznaczono żółtymi i czerwonymi punktami na mapie.

Najedź kursorem aby zobaczyć nazwę stacji.

Kliknij aby zobaczyć obserwacje i prognozy pogody.

Aby zmienić mapę: kliknij na zielony przycisk z czarnym krzyżykiem, aby powiększyć; na zielony przycisk z myślnikiem, aby pomniejszyć; na zielone strzałki, aby przejść do map sąsiednich.


METAR-TAF: